createdAt,value
2023-01-08T00:00:42.499Z,29.83
2023-01-08T00:03:14.708Z,30.38
2023-01-08T00:05:45.840Z,30.30
2023-01-08T00:08:16.379Z,31.33
2023-01-08T00:10:47.537Z,30.37
2023-01-08T00:13:17.926Z,30.53
2023-01-08T00:15:49.142Z,31.27
2023-01-08T00:18:19.602Z,31.56
2023-01-08T00:20:51.261Z,32.15
2023-01-08T00:23:22.734Z,32.23
2023-01-08T00:25:54.226Z,31.70
2023-01-08T00:28:24.693Z,31.03
2023-01-08T00:30:56.290Z,31.79
2023-01-08T00:33:27.587Z,31.46
2023-01-08T00:35:58.115Z,32.34
2023-01-08T00:38:30.927Z,31.68
2023-01-08T00:41:02.043Z,31.79
2023-01-08T00:43:33.387Z,31.49
2023-01-08T00:46:06.019Z,31.23
2023-01-08T00:48:40.351Z,31.56
2023-01-08T00:51:12.048Z,31.40
2023-01-08T00:53:43.177Z,31.51
2023-01-08T00:56:14.458Z,31.28
2023-01-08T00:58:45.578Z,31.68
2023-01-08T01:01:18.267Z,32.17
2023-01-08T01:03:55.055Z,31.37
2023-01-08T01:06:26.535Z,32.49
2023-01-08T01:08:58.782Z,31.40
2023-01-08T01:11:30.970Z,32.44
2023-01-08T01:14:01.951Z,32.07
2023-01-08T01:16:32.285Z,31.98
2023-01-08T01:19:03.313Z,32.43
2023-01-08T01:21:35.221Z,32.36
2023-01-08T01:24:08.128Z,32.42
2023-01-08T01:26:39.262Z,32.76
2023-01-08T01:29:10.327Z,32.06
2023-01-08T01:31:41.545Z,32.37
2023-01-08T01:34:12.658Z,33.65
2023-01-08T01:36:43.571Z,33.93
2023-01-08T01:39:15.261Z,31.34
2023-01-08T01:41:48.022Z,32.40
2023-01-08T01:44:44.287Z,31.56
2023-01-08T01:47:38.756Z,31.67
2023-01-08T01:50:30.351Z,31.87
2023-01-08T01:53:08.461Z,31.56
2023-01-08T01:55:41.661Z,30.94
2023-01-08T01:58:23.063Z,30.87
2023-01-08T02:00:55.615Z,30.93
2023-01-08T02:03:31.032Z,32.11
2023-01-08T02:06:23.814Z,32.01
2023-01-08T02:09:19.053Z,31.34
2023-01-08T02:12:14.296Z,30.79
2023-01-08T02:14:51.309Z,30.27
2023-01-08T02:17:37.947Z,30.61
2023-01-08T02:20:17.826Z,30.67
2023-01-08T02:23:17.689Z,30.82
2023-01-08T02:26:16.563Z,29.99
2023-01-08T02:29:00.537Z,29.97
2023-01-08T02:31:33.100Z,30.42
2023-01-08T02:34:04.508Z,30.03
2023-01-08T02:36:48.847Z,30.14
2023-01-08T02:39:49.190Z,30.16
2023-01-08T02:42:40.176Z,30.22
2023-01-08T02:45:32.370Z,29.32
2023-01-08T02:48:09.658Z,30.91
2023-01-08T02:51:11.092Z,30.29
2023-01-08T02:53:50.907Z,31.42
2023-01-08T02:56:29.201Z,31.81
2023-01-08T02:59:01.132Z,32.04
2023-01-08T03:01:32.578Z,31.08
2023-01-08T03:04:12.063Z,31.51
2023-01-08T03:06:43.210Z,32.36
2023-01-08T03:09:15.528Z,32.58
2023-01-08T03:11:59.838Z,30.94
2023-01-08T03:14:40.146Z,29.74
2023-01-08T03:17:26.472Z,30.43
2023-01-08T03:20:24.310Z,30.29
2023-01-08T03:22:59.020Z,30.33
2023-01-08T03:25:31.120Z,30.69
2023-01-08T03:28:05.360Z,29.86
2023-01-08T03:30:37.034Z,29.01
2023-01-08T03:33:08.847Z,29.59
2023-01-08T03:35:42.752Z,30.38
2023-01-08T03:38:17.756Z,30.49
2023-01-08T03:40:52.518Z,30.61
2023-01-08T03:43:23.411Z,30.99
2023-01-08T03:45:58.640Z,30.66
2023-01-08T03:48:30.507Z,30.27
2023-01-08T03:51:01.986Z,30.65
2023-01-08T03:53:32.921Z,30.58
2023-01-08T03:56:04.113Z,30.72
2023-01-08T03:58:35.381Z,30.88
2023-01-08T04:01:06.517Z,30.47
2023-01-08T04:03:38.167Z,30.94
2023-01-08T04:06:09.405Z,30.72
2023-01-08T04:08:39.672Z,30.36
2023-01-08T04:11:10.932Z,30.10
2023-01-08T04:13:41.903Z,30.11
2023-01-08T04:16:13.357Z,29.52
2023-01-08T04:18:43.732Z,28.92
2023-01-08T04:21:15.544Z,29.09
2023-01-08T04:23:46.898Z,29.05
2023-01-08T04:26:17.784Z,28.03
2023-01-08T04:28:49.096Z,27.99
2023-01-08T04:31:20.125Z,27.69
2023-01-08T04:33:50.600Z,27.44
2023-01-08T04:36:21.515Z,27.17
2023-01-08T04:38:52.450Z,27.37
2023-01-08T04:41:23.055Z,27.01
2023-01-08T04:43:54.122Z,26.76
2023-01-08T04:46:25.490Z,26.74
2023-01-08T04:48:56.732Z,26.77
2023-01-08T04:51:27.886Z,26.90
2023-01-08T04:53:58.819Z,26.80
2023-01-08T04:56:30.162Z,26.71
2023-01-08T04:59:00.833Z,26.67
2023-01-08T05:01:31.944Z,26.06
2023-01-08T05:04:05.265Z,26.47
2023-01-08T05:06:36.514Z,26.19
2023-01-08T05:09:07.633Z,26.00
2023-01-08T05:11:38.833Z,26.00
2023-01-08T05:14:10.296Z,26.07
2023-01-08T05:16:41.473Z,25.96
2023-01-08T05:19:12.529Z,25.99
2023-01-08T05:21:44.081Z,25.87
2023-01-08T05:24:14.782Z,25.78
2023-01-08T05:26:46.124Z,25.57
2023-01-08T05:29:17.479Z,25.67
2023-01-08T05:31:48.647Z,25.96
2023-01-08T05:34:19.293Z,25.74
2023-01-08T05:36:50.188Z,25.82
2023-01-08T05:39:21.100Z,25.87
2023-01-08T05:41:51.780Z,25.51
2023-01-08T05:44:22.950Z,25.50
2023-01-08T05:46:55.860Z,25.53
2023-01-08T05:49:26.844Z,25.55
2023-01-08T05:51:57.928Z,26.00
2023-01-08T05:54:29.290Z,26.60
2023-01-08T05:56:59.865Z,26.59
2023-01-08T05:59:31.038Z,26.62
2023-01-08T06:02:01.669Z,26.77
2023-01-08T06:04:32.794Z,26.81
2023-01-08T06:07:03.520Z,26.34
2023-01-08T06:09:34.630Z,26.26
2023-01-08T06:12:05.975Z,25.93
2023-01-08T06:14:37.360Z,25.57
2023-01-08T06:17:08.383Z,25.61
2023-01-08T06:19:40.802Z,25.82
2023-01-08T06:22:12.573Z,25.77
2023-01-08T06:24:44.091Z,25.78
2023-01-08T06:27:15.208Z,25.68
2023-01-08T06:29:45.997Z,25.60
2023-01-08T06:32:17.439Z,25.31
2023-01-08T06:34:48.686Z,25.28
2023-01-08T06:37:19.622Z,25.30
2023-01-08T06:39:50.665Z,25.25
2023-01-08T06:42:21.626Z,25.06
2023-01-08T06:44:52.674Z,25.14
2023-01-08T06:47:23.771Z,24.93
2023-01-08T06:49:55.024Z,24.94
2023-01-08T06:52:26.319Z,24.84
2023-01-08T06:54:57.726Z,24.70
2023-01-08T06:57:28.744Z,24.63
2023-01-08T06:59:59.892Z,24.65
2023-01-08T07:02:32.482Z,24.73
2023-01-08T07:05:02.948Z,24.64
2023-01-08T07:07:33.949Z,24.76
2023-01-08T07:10:04.972Z,24.62
2023-01-08T07:12:36.433Z,24.36
2023-01-08T07:15:07.146Z,24.39
2023-01-08T07:17:39.003Z,24.27
2023-01-08T07:20:11.224Z,24.30
2023-01-08T07:22:42.702Z,24.30
2023-01-08T07:25:13.876Z,24.18
2023-01-08T07:27:45.047Z,24.30
2023-01-08T07:30:28.998Z,24.34
2023-01-08T07:33:01.905Z,24.23
2023-01-08T07:35:33.233Z,24.19
2023-01-08T07:38:04.373Z,24.23
2023-01-08T07:40:35.671Z,24.18
2023-01-08T07:43:08.209Z,24.14
2023-01-08T07:45:39.401Z,24.14
2023-01-08T07:48:17.257Z,24.12
2023-01-08T07:50:48.679Z,24.10
2023-01-08T07:53:19.847Z,24.09
2023-01-08T07:55:50.676Z,24.06
2023-01-08T07:58:21.688Z,23.98
2023-01-08T08:00:52.696Z,23.94
2023-01-08T08:03:24.121Z,23.92
2023-01-08T08:05:55.424Z,23.93
2023-01-08T08:08:26.291Z,23.87
2023-01-08T08:10:57.422Z,23.90
2023-01-08T08:13:28.831Z,23.96
2023-01-08T08:16:05.002Z,23.89
2023-01-08T08:18:36.270Z,23.86
2023-01-08T08:21:08.180Z,23.83
2023-01-08T08:23:39.992Z,23.85
2023-01-08T08:26:11.008Z,23.74
2023-01-08T08:28:41.890Z,23.78
2023-01-08T08:31:13.224Z,23.79
2023-01-08T08:33:44.566Z,23.75
2023-01-08T08:36:15.540Z,23.68
2023-01-08T08:38:46.765Z,23.65
2023-01-08T08:41:19.516Z,23.69
2023-01-08T08:43:52.788Z,23.63
2023-01-08T08:46:23.831Z,23.60
2023-01-08T08:48:54.812Z,23.50
2023-01-08T08:51:25.734Z,23.53
2023-01-08T08:53:56.781Z,23.48
2023-01-08T08:56:31.175Z,23.47
2023-01-08T08:59:02.620Z,23.47
2023-01-08T09:01:33.981Z,23.41
2023-01-08T09:04:04.809Z,23.43
2023-01-08T09:06:35.868Z,23.45
2023-01-08T09:09:06.812Z,23.36
2023-01-08T09:11:38.045Z,23.45
2023-01-08T09:14:09.296Z,23.40
2023-01-08T09:16:40.442Z,23.36
2023-01-08T09:19:12.578Z,23.44
2023-01-08T09:21:43.511Z,23.28
2023-01-08T09:24:15.061Z,23.24
2023-01-08T09:26:46.206Z,23.21
2023-01-08T09:29:17.341Z,23.22
2023-01-08T09:31:48.576Z,23.15
2023-01-08T09:34:19.309Z,23.23
2023-01-08T09:36:50.394Z,23.17
2023-01-08T09:39:21.610Z,23.13
2023-01-08T09:41:54.307Z,23.08
2023-01-08T09:44:28.959Z,22.96
2023-01-08T09:47:01.065Z,22.91
2023-01-08T09:49:51.378Z,22.86
2023-01-08T09:52:22.805Z,22.82
2023-01-08T09:54:53.855Z,22.80
2023-01-08T09:57:26.529Z,22.74
2023-01-08T09:59:57.817Z,22.73
2023-01-08T10:02:30.458Z,22.68
2023-01-08T10:05:05.306Z,22.71
2023-01-08T10:07:36.331Z,22.72
2023-01-08T10:10:07.852Z,22.65
2023-01-08T10:12:39.348Z,22.68
2023-01-08T10:15:16.117Z,22.73
2023-01-08T10:18:13.320Z,22.68
2023-01-08T10:20:44.902Z,22.70
2023-01-08T10:23:19.151Z,22.65
2023-01-08T10:25:59.042Z,22.63
2023-01-08T10:28:37.233Z,22.67
2023-01-08T10:31:12.761Z,22.75
2023-01-08T10:33:45.026Z,22.65
2023-01-08T10:36:28.980Z,22.62
2023-01-08T10:39:04.280Z,22.61
2023-01-08T10:41:41.039Z,22.64
2023-01-08T10:44:18.907Z,22.63
2023-01-08T10:46:52.969Z,22.68
2023-01-08T10:49:50.472Z,22.64
2023-01-08T10:52:35.472Z,22.64
2023-01-08T10:55:28.326Z,22.65
2023-01-08T10:58:04.958Z,22.65
2023-01-08T11:00:40.611Z,22.63
2023-01-08T11:03:27.325Z,22.64
2023-01-08T11:05:58.436Z,22.64
2023-01-08T11:08:29.528Z,22.60
2023-01-08T11:11:04.664Z,22.53
2023-01-08T11:13:35.827Z,22.53
2023-01-08T11:16:11.887Z,22.52
2023-01-08T11:18:51.070Z,22.45
2023-01-08T11:21:32.311Z,22.40
2023-01-08T11:24:04.703Z,22.41
2023-01-08T11:26:37.684Z,22.39
2023-01-08T11:29:26.639Z,22.36
2023-01-08T11:32:17.598Z,22.36
2023-01-08T11:35:38.564Z,22.31
2023-01-08T11:38:10.034Z,22.36
2023-01-08T11:41:11.965Z,22.34
2023-01-08T11:44:24.049Z,22.30
2023-01-08T11:47:07.387Z,22.35
2023-01-08T11:50:04.803Z,22.34
2023-01-08T11:53:01.682Z,22.25
2023-01-08T11:55:58.688Z,22.16
2023-01-08T11:58:59.050Z,22.10
2023-01-08T12:01:46.865Z,22.05
2023-01-08T12:04:35.903Z,22.02
2023-01-08T12:07:07.029Z,21.99
2023-01-08T12:10:16.275Z,21.88
2023-01-08T12:13:04.409Z,21.88
2023-01-08T12:15:58.399Z,21.99
2023-01-08T12:18:37.151Z,21.96
2023-01-08T12:21:47.011Z,21.98
2023-01-08T12:24:37.165Z,21.96
2023-01-08T12:27:17.849Z,21.93
2023-01-08T12:29:57.697Z,21.96
2023-01-08T12:32:39.477Z,21.95
2023-01-08T12:35:35.650Z,21.91
2023-01-08T12:38:28.644Z,21.91
2023-01-08T12:41:21.793Z,21.86
2023-01-08T12:44:04.829Z,21.80
2023-01-08T12:46:41.575Z,21.74
2023-01-08T12:49:16.523Z,21.70
2023-01-08T12:52:05.064Z,21.74
2023-01-08T12:55:06.586Z,21.72
2023-01-08T12:57:46.559Z,21.62
2023-01-08T13:00:33.494Z,21.62
2023-01-08T13:03:06.964Z,21.50
2023-01-08T13:05:39.464Z,21.48
2023-01-08T13:08:40.099Z,21.49
2023-01-08T13:11:11.733Z,21.43
2023-01-08T13:13:46.609Z,21.43
2023-01-08T13:16:20.745Z,21.36
2023-01-08T13:18:58.633Z,21.22
2023-01-08T13:21:40.698Z,21.13
2023-01-08T13:24:38.581Z,21.20
2023-01-08T13:27:22.177Z,21.15
2023-01-08T13:29:54.064Z,21.03
2023-01-08T13:32:27.327Z,21.09
2023-01-08T13:35:25.951Z,21.12
2023-01-08T13:38:23.961Z,21.03
2023-01-08T13:40:58.138Z,21.00
2023-01-08T13:43:39.067Z,20.99
2023-01-08T13:46:20.462Z,20.93
2023-01-08T13:49:08.757Z,20.87
2023-01-08T13:51:46.501Z,20.84
2023-01-08T13:54:17.451Z,20.87
2023-01-08T13:56:52.719Z,20.89
2023-01-08T13:59:40.570Z,20.84
2023-01-08T14:02:34.162Z,20.80
2023-01-08T14:05:25.657Z,20.69
2023-01-08T14:07:57.206Z,20.75
2023-01-08T14:10:29.620Z,20.72
2023-01-08T14:13:11.160Z,20.70
2023-01-08T14:15:42.768Z,20.65
2023-01-08T14:18:15.832Z,20.62
2023-01-08T14:20:47.654Z,20.56
2023-01-08T14:23:27.198Z,20.48
2023-01-08T14:25:59.847Z,20.46
2023-01-08T14:28:31.634Z,20.38
2023-01-08T14:31:03.044Z,20.42
2023-01-08T14:33:39.380Z,20.33
2023-01-08T14:36:11.083Z,20.36
2023-01-08T14:38:42.601Z,20.35
2023-01-08T14:41:17.107Z,20.35
2023-01-08T14:43:51.494Z,20.35
2023-01-08T14:46:26.919Z,20.30
2023-01-08T14:48:58.837Z,20.39
2023-01-08T14:51:32.049Z,20.41
2023-01-08T14:54:05.971Z,20.48
2023-01-08T14:56:38.256Z,20.33
2023-01-08T14:59:12.634Z,20.22
2023-01-08T15:01:44.253Z,20.24
2023-01-08T15:04:18.182Z,20.18
2023-01-08T15:06:50.667Z,20.06
2023-01-08T15:09:32.687Z,20.07
2023-01-08T15:12:06.967Z,20.08
2023-01-08T15:14:38.569Z,19.88
2023-01-08T15:17:16.776Z,19.85
2023-01-08T15:19:57.941Z,19.81
2023-01-08T15:22:32.976Z,19.64
2023-01-08T15:25:08.811Z,19.59
2023-01-08T15:27:40.785Z,19.42
2023-01-08T15:30:29.292Z,19.36
2023-01-08T15:33:18.923Z,19.12
2023-01-08T15:35:50.852Z,19.18
2023-01-08T15:38:25.728Z,19.16
2023-01-08T15:40:57.224Z,19.03
2023-01-08T15:43:28.633Z,19.07
2023-01-08T15:45:59.984Z,18.96
2023-01-08T15:48:31.132Z,18.97
2023-01-08T15:51:02.554Z,18.92
2023-01-08T15:53:33.636Z,19.01
2023-01-08T15:56:05.025Z,18.91
2023-01-08T15:58:36.343Z,18.98
2023-01-08T16:01:07.819Z,19.00
2023-01-08T16:03:38.959Z,18.93
2023-01-08T16:06:10.738Z,18.96
2023-01-08T16:08:41.271Z,18.78
2023-01-08T16:11:12.319Z,18.92
2023-01-08T16:13:43.652Z,18.86
2023-01-08T16:16:16.749Z,18.87
2023-01-08T16:18:48.192Z,18.97
2023-01-08T16:21:19.517Z,19.01
2023-01-08T16:23:50.552Z,18.98
2023-01-08T16:26:22.077Z,18.92
2023-01-08T16:28:53.366Z,18.78
2023-01-08T16:31:30.033Z,18.97
2023-01-08T16:34:08.232Z,18.89
2023-01-08T16:36:39.914Z,18.88
2023-01-08T16:39:11.265Z,18.78
2023-01-08T16:41:42.559Z,18.70
2023-01-08T16:44:30.085Z,18.66
2023-01-08T16:47:03.039Z,18.75
2023-01-08T16:49:35.201Z,18.71
2023-01-08T16:52:06.648Z,18.73
2023-01-08T16:54:38.445Z,18.78
2023-01-08T16:57:08.842Z,18.77
2023-01-08T16:59:40.365Z,18.65
2023-01-08T17:02:12.408Z,18.69
2023-01-08T17:04:46.260Z,18.67
2023-01-08T17:07:17.686Z,18.53
2023-01-08T17:09:48.504Z,18.62
2023-01-08T17:12:23.969Z,18.61
2023-01-08T17:15:00.335Z,18.58
2023-01-08T17:17:33.513Z,18.51
2023-01-08T17:20:05.091Z,18.64
2023-01-08T17:22:36.529Z,18.57
2023-01-08T17:25:08.530Z,18.63
2023-01-08T17:27:39.327Z,18.55
2023-01-08T17:30:12.966Z,18.58
2023-01-08T17:32:44.747Z,18.55
2023-01-08T17:35:18.568Z,18.57
2023-01-08T17:37:49.747Z,18.59
2023-01-08T17:40:21.000Z,18.59
2023-01-08T17:42:52.197Z,18.65
2023-01-08T17:45:23.949Z,18.65
2023-01-08T17:47:55.319Z,18.71
2023-01-08T17:50:26.860Z,18.74
2023-01-08T17:53:00.364Z,18.86
2023-01-08T17:55:31.603Z,19.00
2023-01-08T17:58:02.779Z,19.06
2023-01-08T18:00:34.076Z,19.23
2023-01-08T18:03:05.607Z,19.28
2023-01-08T18:05:36.755Z,19.49
2023-01-08T18:08:08.601Z,19.55
2023-01-08T18:10:40.467Z,19.78
2023-01-08T18:13:12.075Z,19.94
2023-01-08T18:15:43.396Z,20.14
2023-01-08T18:18:14.788Z,20.34
2023-01-08T18:20:46.332Z,20.43
2023-01-08T18:23:17.299Z,20.54
2023-01-08T18:25:48.197Z,20.69
2023-01-08T18:28:20.218Z,20.67
2023-01-08T18:30:52.103Z,20.95
2023-01-08T18:33:24.442Z,21.11
2023-01-08T18:35:55.097Z,21.23
2023-01-08T18:38:26.032Z,21.41
2023-01-08T18:41:00.715Z,21.57
2023-01-08T18:43:33.059Z,21.71
2023-01-08T18:46:06.110Z,21.81
2023-01-08T18:48:38.036Z,21.98
2023-01-08T18:51:09.434Z,22.04
2023-01-08T18:53:41.896Z,21.97
2023-01-08T18:56:16.251Z,22.31
2023-01-08T18:58:47.407Z,22.31
2023-01-08T19:01:18.478Z,22.31
2023-01-08T19:03:49.513Z,22.45
2023-01-08T19:06:20.726Z,22.52
2023-01-08T19:08:51.436Z,22.85
2023-01-08T19:11:22.486Z,22.89
2023-01-08T19:13:57.507Z,23.03
2023-01-08T19:16:28.755Z,23.09
2023-01-08T19:19:00.115Z,23.75
2023-01-08T19:21:31.273Z,24.54
2023-01-08T19:24:02.082Z,23.52
2023-01-08T19:26:33.469Z,23.82
2023-01-08T19:29:05.054Z,23.40
2023-01-08T19:31:35.503Z,23.84
2023-01-08T19:34:08.047Z,23.87
2023-01-08T19:36:39.005Z,24.16
2023-01-08T19:39:12.586Z,24.44
2023-01-08T19:42:01.664Z,24.05
2023-01-08T19:44:33.215Z,24.32
2023-01-08T19:47:05.573Z,24.21
2023-01-08T19:49:35.953Z,24.29
2023-01-08T19:52:07.745Z,24.33
2023-01-08T19:54:39.800Z,25.03
2023-01-08T19:57:11.346Z,24.86
2023-01-08T19:59:42.808Z,24.95
2023-01-08T20:02:13.969Z,24.87
2023-01-08T20:04:45.295Z,24.74
2023-01-08T20:07:18.075Z,24.99
2023-01-08T20:09:49.051Z,25.23
2023-01-08T20:12:20.272Z,24.96
2023-01-08T20:14:50.984Z,25.13
2023-01-08T20:17:26.574Z,24.79
2023-01-08T20:19:57.940Z,25.77
2023-01-08T20:22:30.540Z,25.81
2023-01-08T20:25:01.677Z,24.97
2023-01-08T20:27:33.770Z,24.81
2023-01-08T20:30:04.810Z,25.26
2023-01-08T20:32:36.449Z,25.98
2023-01-08T20:35:08.551Z,26.14
2023-01-08T20:37:38.816Z,26.40
2023-01-08T20:40:10.597Z,25.74
2023-01-08T20:42:47.035Z,25.41
2023-01-08T20:45:18.174Z,25.28
2023-01-08T20:47:49.277Z,25.47
2023-01-08T20:50:20.641Z,26.08
2023-01-08T20:52:51.755Z,25.93
2023-01-08T20:55:23.529Z,26.43
2023-01-08T20:57:54.573Z,26.55
2023-01-08T21:00:27.300Z,26.93
2023-01-08T21:02:58.595Z,27.40
2023-01-08T21:05:29.733Z,27.00
2023-01-08T21:08:00.687Z,27.08
2023-01-08T21:10:31.825Z,27.12
2023-01-08T21:13:02.506Z,27.33
2023-01-08T21:15:33.526Z,27.24
2023-01-08T21:18:04.681Z,27.84
2023-01-08T21:20:35.871Z,27.17
2023-01-08T21:23:07.323Z,27.01
2023-01-08T21:25:38.206Z,27.40
2023-01-08T21:28:09.891Z,26.53
2023-01-08T21:30:41.257Z,26.81
2023-01-08T21:33:13.468Z,27.51
2023-01-08T21:35:45.537Z,27.25
2023-01-08T21:38:16.607Z,27.25
2023-01-08T21:40:47.554Z,26.80
2023-01-08T21:43:36.800Z,26.89
2023-01-08T21:46:07.885Z,27.14
2023-01-08T21:48:38.601Z,27.33
2023-01-08T21:51:29.303Z,27.35
2023-01-08T21:54:00.546Z,28.09
2023-01-08T21:56:32.454Z,28.24
2023-01-08T21:59:03.517Z,28.01
2023-01-08T22:01:34.819Z,28.63
2023-01-08T22:04:05.972Z,27.81
2023-01-08T22:06:36.924Z,28.53
2023-01-08T22:09:07.849Z,27.96
2023-01-08T22:11:38.522Z,28.66
2023-01-08T22:14:09.671Z,28.44
2023-01-08T22:16:40.820Z,28.43
2023-01-08T22:19:12.828Z,28.44
2023-01-08T22:21:43.907Z,28.42
2023-01-08T22:24:15.483Z,29.23
2023-01-08T22:26:46.526Z,29.18
2023-01-08T22:29:21.578Z,29.33
2023-01-08T22:31:52.705Z,29.72
2023-01-08T22:34:23.863Z,29.95
2023-01-08T22:36:55.953Z,30.03
2023-01-08T22:39:27.450Z,30.46
2023-01-08T22:41:59.106Z,29.74
2023-01-08T22:44:29.402Z,29.25
2023-01-08T22:47:03.669Z,29.51
2023-01-08T22:49:35.080Z,29.03
2023-01-08T22:52:05.845Z,28.87
2023-01-08T22:54:36.909Z,29.03
2023-01-08T22:57:07.587Z,28.73
2023-01-08T22:59:38.800Z,28.53
2023-01-08T23:02:10.128Z,29.01
2023-01-08T23:04:41.126Z,28.53
2023-01-08T23:07:12.210Z,28.26
2023-01-08T23:09:43.317Z,28.79
2023-01-08T23:12:14.704Z,29.60
2023-01-08T23:14:45.747Z,28.91
2023-01-08T23:17:16.689Z,29.58
2023-01-08T23:19:47.247Z,30.63
2023-01-08T23:22:18.580Z,29.49
2023-01-08T23:24:49.585Z,29.73
2023-01-08T23:27:21.004Z,29.34
2023-01-08T23:29:51.952Z,29.35
2023-01-08T23:32:23.266Z,28.84
2023-01-08T23:34:57.978Z,28.24
2023-01-08T23:37:29.599Z,28.10
2023-01-08T23:40:01.083Z,28.64
2023-01-08T23:42:32.925Z,29.25
2023-01-08T23:45:04.351Z,28.77
2023-01-08T23:47:35.526Z,28.13
2023-01-08T23:50:07.238Z,28.38
2023-01-08T23:52:38.534Z,27.93
2023-01-08T23:55:09.914Z,28.30
2023-01-08T23:57:42.117Z,28.06
